createdAt,value
2018-03-31T00:01:08.813Z,8.95
2018-03-31T00:03:36.851Z,9.04
2018-03-31T00:06:05.602Z,8.95
2018-03-31T00:08:33.742Z,8.82
2018-03-31T00:11:03.366Z,8.74
2018-03-31T00:13:31.171Z,8.71
2018-03-31T00:15:59.596Z,8.79
2018-03-31T00:18:27.477Z,8.75
2018-03-31T00:20:56.454Z,8.75
2018-03-31T00:23:25.154Z,8.70
2018-03-31T00:25:54.304Z,8.68
2018-03-31T00:28:23.195Z,8.59
2018-03-31T00:30:52.327Z,8.64
2018-03-31T00:33:20.747Z,8.63
2018-03-31T00:35:49.387Z,8.49
2018-03-31T00:38:18.000Z,8.33
2018-03-31T00:40:46.228Z,8.40
2018-03-31T00:43:15.750Z,8.50
2018-03-31T00:45:43.557Z,8.44
2018-03-31T00:48:12.139Z,8.46
2018-03-31T00:50:40.718Z,8.46
2018-03-31T00:53:10.371Z,8.48
2018-03-31T00:55:38.179Z,8.57
2018-03-31T00:58:07.337Z,8.63
2018-03-31T01:00:35.544Z,8.72
2018-03-31T01:03:04.265Z,8.78
2018-03-31T01:05:34.844Z,8.77
2018-03-31T01:08:02.954Z,8.73
2018-03-31T01:10:32.366Z,8.75
2018-03-31T01:13:01.490Z,8.72
2018-03-31T01:15:29.754Z,8.78
2018-03-31T01:17:58.440Z,8.66
2018-03-31T01:20:27.298Z,8.58
2018-03-31T01:22:55.523Z,8.50
2018-03-31T01:25:24.194Z,8.38
2018-03-31T01:27:51.990Z,8.32
2018-03-31T01:30:21.456Z,8.38
2018-03-31T01:32:50.616Z,8.27
2018-03-31T01:35:18.693Z,8.32
2018-03-31T01:37:48.560Z,8.15
2018-03-31T01:40:17.374Z,8.10
2018-03-31T01:42:46.120Z,8.08
2018-03-31T01:45:14.706Z,8.22
2018-03-31T01:47:43.348Z,8.26
2018-03-31T01:50:12.438Z,8.31
2018-03-31T01:52:42.248Z,8.18
2018-03-31T01:55:11.549Z,8.27
2018-03-31T01:57:41.317Z,8.27
2018-03-31T02:00:11.451Z,8.25
2018-03-31T02:02:41.109Z,8.09
2018-03-31T02:05:08.945Z,8.05
2018-03-31T02:07:36.755Z,8.11
2018-03-31T02:10:06.960Z,8.11
2018-03-31T02:12:35.635Z,8.13
2018-03-31T02:15:04.213Z,8.14
2018-03-31T02:17:32.033Z,8.21
2018-03-31T02:20:00.280Z,8.27
2018-03-31T02:22:28.540Z,8.19
2018-03-31T02:24:57.456Z,8.10
2018-03-31T02:27:26.031Z,8.07
2018-03-31T02:29:55.172Z,7.94
2018-03-31T02:32:22.980Z,7.89
2018-03-31T02:34:50.887Z,8.06
2018-03-31T02:37:19.584Z,8.04
2018-03-31T02:39:47.414Z,7.86
2018-03-31T02:42:15.225Z,7.71
2018-03-31T02:44:45.535Z,7.64
2018-03-31T02:47:13.976Z,7.59
2018-03-31T02:49:43.199Z,7.40
2018-03-31T02:52:11.336Z,7.49
2018-03-31T02:54:40.182Z,7.49
2018-03-31T02:57:08.500Z,7.52
2018-03-31T02:59:37.323Z,7.57
2018-03-31T03:02:06.157Z,7.50
2018-03-31T03:04:33.961Z,7.59
2018-03-31T03:07:01.841Z,7.47
2018-03-31T03:09:30.011Z,7.49
2018-03-31T03:11:58.150Z,7.55
2018-03-31T03:14:26.738Z,7.53
2018-03-31T03:16:55.258Z,7.60
2018-03-31T03:19:24.517Z,7.52
2018-03-31T03:21:54.134Z,7.54
2018-03-31T03:24:21.688Z,7.32
2018-03-31T03:26:50.046Z,7.38
2018-03-31T03:29:18.700Z,7.26
2018-03-31T03:31:46.624Z,7.39
2018-03-31T03:34:14.190Z,7.36
2018-03-31T03:36:42.761Z,7.47
2018-03-31T03:39:10.791Z,7.31
2018-03-31T03:41:38.568Z,7.26
2018-03-31T03:44:07.282Z,7.22
2018-03-31T03:46:35.279Z,7.29
2018-03-31T03:49:03.819Z,7.22
2018-03-31T03:51:32.475Z,7.27
2018-03-31T03:54:00.022Z,7.20
2018-03-31T03:56:29.119Z,7.17
2018-03-31T03:58:58.008Z,7.05
2018-03-31T04:01:25.621Z,7.20
2018-03-31T04:03:54.074Z,7.03
2018-03-31T04:06:21.590Z,7.09
2018-03-31T04:08:49.705Z,7.04
2018-03-31T04:11:17.302Z,7.08
2018-03-31T04:13:45.530Z,7.06
2018-03-31T04:16:13.053Z,7.07
2018-03-31T04:18:40.980Z,6.97
2018-03-31T04:21:08.510Z,7.05
2018-03-31T04:23:36.913Z,7.14
2018-03-31T04:26:04.505Z,7.15
2018-03-31T04:28:33.009Z,7.09
2018-03-31T04:31:01.039Z,7.06
2018-03-31T04:33:29.070Z,7.15
2018-03-31T04:35:58.502Z,7.13
2018-03-31T04:38:26.826Z,7.14
2018-03-31T04:40:55.501Z,7.12
2018-03-31T04:43:23.718Z,7.03
2018-03-31T04:45:51.279Z,7.01
2018-03-31T04:48:19.657Z,7.03
2018-03-31T04:50:48.230Z,6.98
2018-03-31T04:53:15.849Z,6.96
2018-03-31T04:55:44.159Z,6.87
2018-03-31T04:58:13.373Z,6.89
2018-03-31T05:00:45.615Z,6.86
2018-03-31T05:03:14.147Z,6.88
2018-03-31T05:05:41.952Z,6.89
2018-03-31T05:08:10.196Z,6.86
2018-03-31T05:10:37.804Z,6.83
2018-03-31T05:13:06.284Z,6.88
2018-03-31T05:15:34.149Z,6.88
2018-03-31T05:18:01.667Z,6.80
2018-03-31T05:20:30.093Z,6.72
2018-03-31T05:22:57.617Z,6.63
2018-03-31T05:25:26.392Z,6.59
2018-03-31T05:27:54.362Z,6.53
2018-03-31T05:30:21.917Z,6.50
2018-03-31T05:32:49.579Z,6.55
2018-03-31T05:35:17.380Z,6.54
2018-03-31T05:37:46.410Z,6.54
2018-03-31T05:40:14.918Z,6.57
2018-03-31T05:42:43.912Z,6.67
2018-03-31T05:45:12.806Z,6.68
2018-03-31T05:47:41.300Z,6.72
2018-03-31T05:50:09.961Z,6.68
2018-03-31T05:52:37.559Z,6.73
2018-03-31T05:55:05.132Z,6.73
2018-03-31T05:57:35.441Z,6.79
2018-03-31T06:00:03.330Z,6.80
2018-03-31T06:02:34.085Z,6.70
2018-03-31T06:05:02.714Z,6.57
2018-03-31T06:07:33.457Z,6.67
2018-03-31T06:10:02.216Z,6.82
2018-03-31T06:12:30.604Z,6.88
2018-03-31T06:14:59.757Z,6.91
2018-03-31T06:17:28.161Z,6.95
2018-03-31T06:19:55.685Z,6.91
2018-03-31T06:22:24.490Z,7.00
2018-03-31T06:24:52.873Z,6.88
2018-03-31T06:27:20.588Z,6.93
2018-03-31T06:29:48.805Z,6.82
2018-03-31T06:32:17.553Z,6.90
2018-03-31T06:34:45.286Z,6.89
2018-03-31T06:37:13.999Z,6.86
2018-03-31T06:39:44.283Z,6.88
2018-03-31T06:42:13.336Z,6.93
2018-03-31T06:44:41.109Z,6.93
2018-03-31T06:47:10.375Z,7.02
2018-03-31T06:49:38.511Z,6.99
2018-03-31T06:52:07.721Z,7.04
2018-03-31T06:54:35.599Z,7.05
2018-03-31T06:57:04.793Z,7.12
2018-03-31T06:59:33.247Z,7.13
2018-03-31T07:02:01.640Z,7.19
2018-03-31T07:04:29.208Z,7.16
2018-03-31T07:06:57.723Z,7.25
2018-03-31T07:09:26.293Z,7.36
2018-03-31T07:11:54.110Z,7.37
2018-03-31T07:14:23.274Z,7.44
2018-03-31T07:16:52.396Z,7.50
2018-03-31T07:19:20.722Z,7.52
2018-03-31T07:21:49.427Z,7.55
2018-03-31T07:24:19.612Z,7.51
2018-03-31T07:26:48.131Z,7.59
2018-03-31T07:29:15.701Z,7.73
2018-03-31T07:31:43.255Z,7.71
2018-03-31T07:34:12.663Z,7.72
2018-03-31T07:36:41.054Z,7.70
2018-03-31T07:39:09.469Z,7.77
2018-03-31T07:41:37.303Z,7.87
2018-03-31T07:44:05.550Z,8.02
2018-03-31T07:46:33.688Z,7.97
2018-03-31T07:49:01.425Z,7.94
2018-03-31T07:51:29.822Z,7.90
2018-03-31T07:53:57.952Z,8.09
2018-03-31T07:56:27.020Z,8.19
2018-03-31T07:58:55.608Z,8.24
2018-03-31T08:01:24.788Z,8.29
2018-03-31T08:03:53.153Z,8.30
2018-03-31T08:06:21.568Z,8.31
2018-03-31T08:08:49.268Z,8.29
2018-03-31T08:11:16.832Z,8.37
2018-03-31T08:13:45.188Z,8.45
2018-03-31T08:16:13.097Z,8.57
2018-03-31T08:18:41.310Z,8.66
2018-03-31T08:21:09.132Z,8.80
2018-03-31T08:23:37.705Z,8.98
2018-03-31T08:26:06.082Z,9.07
2018-03-31T08:28:34.630Z,9.07
2018-03-31T08:31:02.287Z,9.11
2018-03-31T08:33:30.631Z,9.28
2018-03-31T08:36:00.157Z,9.21
2018-03-31T08:38:28.911Z,9.26
2018-03-31T08:40:57.395Z,9.02
2018-03-31T08:43:25.926Z,9.29
2018-03-31T08:45:55.500Z,9.32
2018-03-31T08:48:25.652Z,9.51
2018-03-31T08:50:54.336Z,9.84
2018-03-31T08:53:23.101Z,9.84
2018-03-31T08:55:50.653Z,9.89
2018-03-31T08:58:18.927Z,9.88
2018-03-31T09:00:47.079Z,9.99
2018-03-31T09:03:15.467Z,10.01
2018-03-31T09:05:44.563Z,10.11
2018-03-31T09:08:12.104Z,10.09
2018-03-31T09:10:40.424Z,10.00
2018-03-31T09:13:09.685Z,10.33
2018-03-31T09:15:37.584Z,10.27
2018-03-31T09:18:07.024Z,10.31
2018-03-31T09:20:35.675Z,10.16
2018-03-31T09:23:05.076Z,10.25
2018-03-31T09:25:33.516Z,10.56
2018-03-31T09:28:02.063Z,10.86
2018-03-31T09:30:30.827Z,11.08
2018-03-31T09:32:59.102Z,11.30
2018-03-31T09:35:26.638Z,11.20
2018-03-31T09:37:55.544Z,11.12
2018-03-31T09:40:24.239Z,11.01
2018-03-31T09:42:53.657Z,11.06
2018-03-31T09:45:22.139Z,10.58
2018-03-31T09:47:50.878Z,11.17
2018-03-31T09:50:19.482Z,11.69
2018-03-31T09:52:47.381Z,11.99
2018-03-31T09:55:15.190Z,12.17
2018-03-31T09:57:45.137Z,12.10
2018-03-31T10:00:14.486Z,11.94
2018-03-31T10:02:42.822Z,12.04
2018-03-31T10:05:10.383Z,11.90
2018-03-31T10:07:37.988Z,11.91
2018-03-31T10:10:05.532Z,12.30
2018-03-31T10:12:33.978Z,12.36
2018-03-31T10:15:01.708Z,12.23
2018-03-31T10:17:29.505Z,12.64
2018-03-31T10:19:57.430Z,13.24
2018-03-31T10:22:25.000Z,13.12
2018-03-31T10:24:53.036Z,13.17
2018-03-31T10:27:21.602Z,13.13
2018-03-31T10:29:49.142Z,13.40
2018-03-31T10:32:16.710Z,13.43
2018-03-31T10:34:45.605Z,13.57
2018-03-31T10:37:14.441Z,13.93
2018-03-31T10:39:42.342Z,13.27
2018-03-31T10:42:10.187Z,13.23
2018-03-31T10:44:38.130Z,13.73
2018-03-31T10:47:05.656Z,13.87
2018-03-31T10:49:34.288Z,12.93
2018-03-31T10:52:03.269Z,12.74
2018-03-31T10:54:33.889Z,12.05
2018-03-31T10:57:02.219Z,12.59
2018-03-31T10:59:30.726Z,12.96
2018-03-31T11:01:58.303Z,12.44
2018-03-31T11:04:25.923Z,13.15
2018-03-31T11:06:53.479Z,13.63
2018-03-31T11:09:22.121Z,12.96
2018-03-31T11:11:50.522Z,13.66
2018-03-31T11:14:18.036Z,13.12
2018-03-31T11:16:47.438Z,13.13
2018-03-31T11:19:15.679Z,13.63
2018-03-31T11:21:44.528Z,13.89
2018-03-31T11:24:13.186Z,12.99
2018-03-31T11:26:41.600Z,13.51
2018-03-31T11:29:11.031Z,13.80
2018-03-31T11:31:39.623Z,14.24
2018-03-31T11:34:08.809Z,14.42
2018-03-31T11:36:37.293Z,14.84
2018-03-31T11:39:05.144Z,14.64
2018-03-31T11:41:33.505Z,14.88
2018-03-31T11:44:01.631Z,14.78
2018-03-31T11:46:29.539Z,15.21
2018-03-31T11:48:57.447Z,15.35
2018-03-31T11:51:25.088Z,15.43
2018-03-31T11:53:52.607Z,15.34
2018-03-31T11:56:21.480Z,15.30
2018-03-31T11:58:49.302Z,15.37
2018-03-31T12:01:17.657Z,15.40
2018-03-31T12:03:45.174Z,15.74
2018-03-31T12:06:13.510Z,15.53
2018-03-31T12:08:41.104Z,15.93
2018-03-31T12:11:08.747Z,15.95
2018-03-31T12:13:37.232Z,16.16
2018-03-31T12:16:04.769Z,16.18
2018-03-31T12:18:32.783Z,16.07
2018-03-31T12:21:00.948Z,16.26
2018-03-31T12:23:28.752Z,15.86
2018-03-31T12:25:57.402Z,15.88
2018-03-31T12:28:25.711Z,16.14
2018-03-31T12:30:54.022Z,15.63
2018-03-31T12:33:21.575Z,15.26
2018-03-31T12:35:49.828Z,15.22
2018-03-31T12:38:18.259Z,14.44
2018-03-31T12:40:46.598Z,14.63
2018-03-31T12:43:15.204Z,14.68
2018-03-31T12:45:42.918Z,15.04
2018-03-31T12:48:11.164Z,15.19
2018-03-31T12:50:40.363Z,14.76
2018-03-31T12:53:08.646Z,14.82
2018-03-31T12:55:37.003Z,15.53
2018-03-31T12:58:05.911Z,16.11
2018-03-31T13:00:33.489Z,16.18
2018-03-31T13:03:01.725Z,16.06
2018-03-31T13:05:30.091Z,16.52
2018-03-31T13:07:57.864Z,16.64
2018-03-31T13:10:26.448Z,16.00
2018-03-31T13:12:53.976Z,16.07
2018-03-31T13:15:21.523Z,15.23
2018-03-31T13:17:49.783Z,15.25
2018-03-31T13:20:18.177Z,15.45
2018-03-31T13:22:45.921Z,15.33
2018-03-31T13:25:13.819Z,15.77
2018-03-31T13:27:42.024Z,16.22
2018-03-31T13:30:10.471Z,15.70
2018-03-31T13:32:40.329Z,15.59
2018-03-31T13:35:10.459Z,15.66
2018-03-31T13:37:38.304Z,15.58
2018-03-31T13:40:05.830Z,15.86
2018-03-31T13:42:34.482Z,15.74
2018-03-31T13:45:02.362Z,15.57
2018-03-31T13:47:31.082Z,15.77
2018-03-31T13:49:59.558Z,15.54
2018-03-31T13:52:28.337Z,15.44
2018-03-31T13:54:57.071Z,15.85
2018-03-31T13:57:25.194Z,15.44
2018-03-31T13:59:52.722Z,14.96
2018-03-31T14:02:22.190Z,14.85
2018-03-31T14:04:50.585Z,14.75
2018-03-31T14:07:18.455Z,14.59
2018-03-31T14:09:47.860Z,14.57
2018-03-31T14:12:16.306Z,14.75
2018-03-31T14:14:43.848Z,14.80
2018-03-31T14:17:11.457Z,14.77
2018-03-31T14:19:39.035Z,14.95
2018-03-31T14:22:06.638Z,14.92
2018-03-31T14:24:36.073Z,15.05
2018-03-31T14:27:03.627Z,14.79
2018-03-31T14:29:31.148Z,14.63
2018-03-31T14:32:00.073Z,14.57
2018-03-31T14:34:27.605Z,14.56
2018-03-31T14:36:57.124Z,14.78
2018-03-31T14:39:25.475Z,14.57
2018-03-31T14:41:53.906Z,14.63
2018-03-31T14:44:21.482Z,14.95
2018-03-31T14:46:49.243Z,14.83
2018-03-31T14:49:16.835Z,14.91
2018-03-31T14:51:44.584Z,14.71
2018-03-31T14:54:12.917Z,14.36
2018-03-31T14:56:40.441Z,14.28
2018-03-31T14:59:11.905Z,14.28
2018-03-31T15:01:40.051Z,14.42
2018-03-31T15:04:08.531Z,14.47
2018-03-31T15:06:37.870Z,15.16
2018-03-31T15:09:05.778Z,15.26
2018-03-31T15:11:34.340Z,15.00
2018-03-31T15:14:03.352Z,14.97
2018-03-31T15:16:30.991Z,15.13
2018-03-31T15:19:00.586Z,15.26
2018-03-31T15:21:29.360Z,15.41
2018-03-31T15:23:57.605Z,14.97
2018-03-31T15:26:25.947Z,14.88
2018-03-31T15:28:53.870Z,15.01
2018-03-31T15:31:21.770Z,15.09
2018-03-31T15:33:51.435Z,14.71
2018-03-31T15:36:20.043Z,14.72
2018-03-31T15:38:48.264Z,15.01
2018-03-31T15:41:16.523Z,15.04
2018-03-31T15:43:44.389Z,14.72
2018-03-31T15:46:12.783Z,14.58
2018-03-31T15:48:41.532Z,14.24
2018-03-31T15:51:09.316Z,13.99
2018-03-31T15:53:38.172Z,13.91
2018-03-31T15:56:07.514Z,14.37
2018-03-31T15:58:35.044Z,15.23
2018-03-31T16:01:04.745Z,15.95
2018-03-31T16:03:33.195Z,16.78
2018-03-31T16:06:01.287Z,17.03
2018-03-31T16:08:29.043Z,17.52
2018-03-31T16:10:57.033Z,17.17
2018-03-31T16:13:24.585Z,16.68
2018-03-31T16:15:52.697Z,15.42
2018-03-31T16:18:21.441Z,14.96
2018-03-31T16:20:51.964Z,15.00
2018-03-31T16:23:20.813Z,15.22
2018-03-31T16:25:50.385Z,15.22
2018-03-31T16:28:18.836Z,15.00
2018-03-31T16:30:47.289Z,14.30
2018-03-31T16:33:16.514Z,14.25
2018-03-31T16:35:46.477Z,14.16
2018-03-31T16:38:14.024Z,14.16
2018-03-31T16:40:42.216Z,14.06
2018-03-31T16:43:11.516Z,14.95
2018-03-31T16:45:40.189Z,14.72
2018-03-31T16:48:09.527Z,14.46
2018-03-31T16:50:37.980Z,14.48
2018-03-31T16:53:06.431Z,14.76
2018-03-31T16:55:35.959Z,14.88
2018-03-31T16:58:06.053Z,15.15
2018-03-31T17:00:34.464Z,14.73
2018-03-31T17:03:06.357Z,15.09
2018-03-31T17:05:34.310Z,15.63
2018-03-31T17:08:03.293Z,16.81
2018-03-31T17:10:34.445Z,17.17
2018-03-31T17:13:03.344Z,17.17
2018-03-31T17:15:33.039Z,16.69
2018-03-31T17:18:03.981Z,16.83
2018-03-31T17:20:39.355Z,16.79
2018-03-31T17:23:06.997Z,17.21
2018-03-31T17:25:36.417Z,17.80
2018-03-31T17:28:05.020Z,17.30
2018-03-31T17:30:34.085Z,17.00
2018-03-31T17:33:04.057Z,16.63
2018-03-31T17:35:33.506Z,16.56
2018-03-31T17:38:01.687Z,16.44
2018-03-31T17:40:33.010Z,16.12
2018-03-31T17:43:01.738Z,15.74
2018-03-31T17:45:29.308Z,15.48
2018-03-31T17:47:57.988Z,15.13
2018-03-31T17:50:28.684Z,14.53
2018-03-31T17:52:57.992Z,14.05
2018-03-31T17:55:26.233Z,13.86
2018-03-31T17:57:54.927Z,13.66
2018-03-31T18:00:23.265Z,13.47
2018-03-31T18:02:51.966Z,13.31
2018-03-31T18:05:21.387Z,13.27
2018-03-31T18:07:48.988Z,13.15
2018-03-31T18:10:17.252Z,13.12
2018-03-31T18:12:45.742Z,13.02
2018-03-31T18:15:14.928Z,12.90
2018-03-31T18:17:43.444Z,12.75
2018-03-31T18:20:10.978Z,12.68
2018-03-31T18:22:38.869Z,12.59
2018-03-31T18:25:07.396Z,12.42
2018-03-31T18:27:38.224Z,12.45
2018-03-31T18:30:08.474Z,12.48
2018-03-31T18:32:37.905Z,12.26
2018-03-31T18:35:07.124Z,12.26
2018-03-31T18:37:34.689Z,11.98
2018-03-31T18:40:03.591Z,11.84
2018-03-31T18:42:31.401Z,11.85
2018-03-31T18:44:59.665Z,11.70
2018-03-31T18:47:28.115Z,11.64
2018-03-31T18:49:55.671Z,11.54
2018-03-31T18:52:23.236Z,11.38
2018-03-31T18:54:51.066Z,11.25
2018-03-31T18:57:18.615Z,11.37
2018-03-31T18:59:46.190Z,11.30
2018-03-31T19:02:14.900Z,10.99
2018-03-31T19:04:43.146Z,11.01
2018-03-31T19:07:12.344Z,10.88
2018-03-31T19:09:39.931Z,10.68
2018-03-31T19:12:08.101Z,10.68
2018-03-31T19:14:44.217Z,10.67
2018-03-31T19:17:15.829Z,10.59
2018-03-31T19:19:45.005Z,10.60
2018-03-31T19:22:15.506Z,10.65
2018-03-31T19:24:49.453Z,10.58
2018-03-31T19:27:18.444Z,10.47
2018-03-31T19:29:47.184Z,10.56
2018-03-31T19:32:15.971Z,10.43
2018-03-31T19:34:43.808Z,10.33
2018-03-31T19:37:12.339Z,10.31
2018-03-31T19:39:45.410Z,10.25
2018-03-31T19:42:16.481Z,9.99
2018-03-31T19:44:45.106Z,10.02
2018-03-31T19:47:14.251Z,9.99
2018-03-31T19:49:43.593Z,10.03
2018-03-31T19:52:12.062Z,10.05
2018-03-31T19:54:40.280Z,10.06
2018-03-31T19:57:08.229Z,10.07
2018-03-31T19:59:36.156Z,10.06
2018-03-31T20:02:06.421Z,10.11
2018-03-31T20:04:34.985Z,9.93
2018-03-31T20:07:02.499Z,9.86
2018-03-31T20:09:32.333Z,9.75
2018-03-31T20:12:01.108Z,9.59
2018-03-31T20:14:32.684Z,9.72
2018-03-31T20:17:01.055Z,9.59
2018-03-31T20:19:29.337Z,9.37
2018-03-31T20:21:59.247Z,9.36
2018-03-31T20:24:27.302Z,9.43
2018-03-31T20:26:54.830Z,9.36
2018-03-31T20:29:23.314Z,9.36
2018-03-31T20:31:51.215Z,9.31
2018-03-31T20:34:19.095Z,9.43
2018-03-31T20:36:47.445Z,9.44
2018-03-31T20:39:16.230Z,9.39
2018-03-31T20:41:44.775Z,9.34
2018-03-31T20:44:13.139Z,9.40
2018-03-31T20:46:42.958Z,9.18
2018-03-31T20:49:10.926Z,9.08
2018-03-31T20:51:38.493Z,9.09
2018-03-31T20:54:07.099Z,9.01
2018-03-31T20:56:35.627Z,8.95
2018-03-31T20:59:04.359Z,8.83
2018-03-31T21:01:33.304Z,8.98
2018-03-31T21:04:00.858Z,9.05
2018-03-31T21:06:29.150Z,9.04
2018-03-31T21:08:56.715Z,8.99
2018-03-31T21:11:24.742Z,9.00
2018-03-31T21:13:52.264Z,8.92
2018-03-31T21:16:23.282Z,9.05
2018-03-31T21:18:52.644Z,8.89
2018-03-31T21:21:20.198Z,8.97
2018-03-31T21:23:48.004Z,8.97
2018-03-31T21:26:16.416Z,9.11
2018-03-31T21:28:44.639Z,9.01
2018-03-31T21:31:12.270Z,9.04
2018-03-31T21:33:40.128Z,9.14
2018-03-31T21:36:07.640Z,9.23
2018-03-31T21:38:35.748Z,9.19
2018-03-31T21:41:04.083Z,9.11
2018-03-31T21:43:32.615Z,9.21
2018-03-31T21:46:01.100Z,9.36
2018-03-31T21:48:29.459Z,9.33
2018-03-31T21:50:57.024Z,9.31
2018-03-31T21:53:25.591Z,9.40
2018-03-31T21:55:53.358Z,9.39
2018-03-31T21:58:22.206Z,9.45
2018-03-31T22:00:50.636Z,9.44
2018-03-31T22:03:19.479Z,9.35
2018-03-31T22:05:47.265Z,9.31
2018-03-31T22:08:16.409Z,9.24
2018-03-31T22:10:44.770Z,9.18
2018-03-31T22:13:20.244Z,9.22
2018-03-31T22:15:49.867Z,9.18
2018-03-31T22:18:18.260Z,9.21
2018-03-31T22:20:46.692Z,9.33
2018-03-31T22:23:16.924Z,9.39
2018-03-31T22:25:45.079Z,9.42
2018-03-31T22:28:12.680Z,9.33
2018-03-31T22:30:40.219Z,9.33
2018-03-31T22:33:07.864Z,9.38
2018-03-31T22:35:37.288Z,9.43
2018-03-31T22:38:06.323Z,9.43
2018-03-31T22:40:34.080Z,9.36
2018-03-31T22:43:03.438Z,9.36
2018-03-31T22:45:31.589Z,9.39
2018-03-31T22:48:00.744Z,9.29
2018-03-31T22:50:29.516Z,9.37
2018-03-31T22:52:57.694Z,9.46
2018-03-31T22:55:25.207Z,9.39
2018-03-31T22:57:52.816Z,9.44
2018-03-31T23:00:20.357Z,9.34
2018-03-31T23:02:48.743Z,9.22
2018-03-31T23:05:17.220Z,9.20
2018-03-31T23:07:45.310Z,9.11
2018-03-31T23:10:13.227Z,8.95
2018-03-31T23:12:41.918Z,8.89
2018-03-31T23:15:09.787Z,8.91
2018-03-31T23:17:38.463Z,8.98
2018-03-31T23:20:07.115Z,8.92
2018-03-31T23:22:35.848Z,8.89
2018-03-31T23:25:04.170Z,8.81
2018-03-31T23:27:32.670Z,8.74
2018-03-31T23:30:00.916Z,8.66
2018-03-31T23:32:29.432Z,8.71
2018-03-31T23:34:59.103Z,8.67
2018-03-31T23:37:28.170Z,8.61
2018-03-31T23:39:57.261Z,8.51
2018-03-31T23:42:25.080Z,8.49
2018-03-31T23:44:52.875Z,8.46
2018-03-31T23:47:21.717Z,8.47
2018-03-31T23:49:49.513Z,8.39
2018-03-31T23:52:18.040Z,8.27
2018-03-31T23:54:45.628Z,8.30
2018-03-31T23:57:13.257Z,8.29
2018-03-31T23:59:41.407Z,8.35
